sensor_id;sensor_type;location;lat;lon;timestamp;temperature;humidity
19110;DHT22;9687;50.836;12.060;2023-05-07T00:01:58;17.50;73.70
19110;DHT22;9687;50.836;12.060;2023-05-07T00:04:31;17.40;73.60
19110;DHT22;9687;50.836;12.060;2023-05-07T00:07:07;17.40;73.60
19110;DHT22;9687;50.836;12.060;2023-05-07T00:09:38;17.40;73.70
19110;DHT22;9687;50.836;12.060;2023-05-07T00:12:11;17.40;73.80
19110;DHT22;9687;50.836;12.060;2023-05-07T00:14:45;17.30;73.80
19110;DHT22;9687;50.836;12.060;2023-05-07T00:17:21;17.30;73.80
19110;DHT22;9687;50.836;12.060;2023-05-07T02:20:16;16.70;73.30
19110;DHT22;9687;50.836;12.060;2023-05-07T02:22:48;16.70;73.30
19110;DHT22;9687;50.836;12.060;2023-05-07T02:25:22;16.70;73.40
19110;DHT22;9687;50.836;12.060;2023-05-07T02:27:55;16.60;73.30
19110;DHT22;9687;50.836;12.060;2023-05-07T02:30:27;16.60;73.40
19110;DHT22;9687;50.836;12.060;2023-05-07T02:32:57;16.60;73.50
19110;DHT22;9687;50.836;12.060;2023-05-07T02:35:30;16.60;73.50
19110;DHT22;9687;50.836;12.060;2023-05-07T02:38:02;16.60;73.80
19110;DHT22;9687;50.836;12.060;2023-05-07T02:40:37;16.60;73.60
19110;DHT22;9687;50.836;12.060;2023-05-07T02:43:10;16.60;74.40
19110;DHT22;9687;50.836;12.060;2023-05-07T02:45:44;16.60;73.70
19110;DHT22;9687;50.836;12.060;2023-05-07T02:48:15;16.60;73.80
19110;DHT22;9687;50.836;12.060;2023-05-07T02:50:48;16.50;73.80
19110;DHT22;9687;50.836;12.060;2023-05-07T02:53:18;16.50;73.90
19110;DHT22;9687;50.836;12.060;2023-05-07T02:55:50;16.50;74.00
19110;DHT22;9687;50.836;12.060;2023-05-07T02:58:18;16.50;74.20
19110;DHT22;9687;50.836;12.060;2023-05-07T03:00:52;16.50;74.30
19110;DHT22;9687;50.836;12.060;2023-05-07T03:03:26;16.50;74.40
19110;DHT22;9687;50.836;12.060;2023-05-07T03:06:00;16.50;74.50
19110;DHT22;9687;50.836;12.060;2023-05-07T03:08:34;16.40;74.50
19110;DHT22;9687;50.836;12.060;2023-05-07T03:11:07;16.40;74.70
19110;DHT22;9687;50.836;12.060;2023-05-07T03:13:39;16.40;74.80
19110;DHT22;9687;50.836;12.060;2023-05-07T03:16:08;16.40;74.90
19110;DHT22;9687;50.836;12.060;2023-05-07T03:18:41;16.30;74.90
19110;DHT22;9687;50.836;12.060;2023-05-07T06:20:31;15.60;78.60
19110;DHT22;9687;50.836;12.060;2023-05-07T06:23:02;15.60;78.70
19110;DHT22;9687;50.836;12.060;2023-05-07T06:25:47;15.60;78.60
19110;DHT22;9687;50.836;12.060;2023-05-07T06:28:18;15.60;78.60
19110;DHT22;9687;50.836;12.060;2023-05-07T06:30:49;15.70;78.70
19110;DHT22;9687;50.836;12.060;2023-05-07T06:33:27;15.70;78.70
19110;DHT22;9687;50.836;12.060;2023-05-07T06:36:01;15.70;78.50
19110;DHT22;9687;50.836;12.060;2023-05-07T06:38:33;15.80;78.50
19110;DHT22;9687;50.836;12.060;2023-05-07T06:41:08;15.80;78.30
19110;DHT22;9687;50.836;12.060;2023-05-07T06:43:46;15.80;78.20
19110;DHT22;9687;50.836;12.060;2023-05-07T06:46:16;15.90;78.30
19110;DHT22;9687;50.836;12.060;2023-05-07T06:48:52;15.90;77.60
19110;DHT22;9687;50.836;12.060;2023-05-07T06:51:25;15.90;78.20
19110;DHT22;9687;50.836;12.060;2023-05-07T06:53:58;15.90;78.10
19110;DHT22;9687;50.836;12.060;2023-05-07T06:56:32;15.90;78.00
19110;DHT22;9687;50.836;12.060;2023-05-07T06:59:07;15.90;78.00
19110;DHT22;9687;50.836;12.060;2023-05-07T07:01:35;15.90;78.10
19110;DHT22;9687;50.836;12.060;2023-05-07T07:04:06;15.90;78.00
19110;DHT22;9687;50.836;12.060;2023-05-07T07:06:40;15.90;78.10
19110;DHT22;9687;50.836;12.060;2023-05-07T07:09:14;15.90;78.10
19110;DHT22;9687;50.836;12.060;2023-05-07T07:11:47;16.00;78.20
19110;DHT22;9687;50.836;12.060;2023-05-07T07:14:25;16.00;78.10
19110;DHT22;9687;50.836;12.060;2023-05-07T07:17:04;16.00;78.00
19110;DHT22;9687;50.836;12.060;2023-05-07T07:19:38;16.00;77.90
19110;DHT22;9687;50.836;12.060;2023-05-07T13:27:10;17.90;70.20
19110;DHT22;9687;50.836;12.060;2023-05-07T13:29:44;17.90;70.30
19110;DHT22;9687;50.836;12.060;2023-05-07T13:32:26;18.00;69.80
19110;DHT22;9687;50.836;12.060;2023-05-07T13:35:11;18.00;69.50
19110;DHT22;9687;50.836;12.060;2023-05-07T13:38:03;18.00;69.70
19110;DHT22;9687;50.836;12.060;2023-05-07T13:41:10;18.00;69.90
19110;DHT22;9687;50.836;12.060;2023-05-07T13:43:55;18.00;69.80
19110;DHT22;9687;50.836;12.060;2023-05-07T13:46:27;18.00;69.70
19110;DHT22;9687;50.836;12.060;2023-05-07T13:49:05;18.00;69.80
19110;DHT22;9687;50.836;12.060;2023-05-07T13:51:42;18.10;69.60
19110;DHT22;9687;50.836;12.060;2023-05-07T13:54:21;18.10;69.50
19110;DHT22;9687;50.836;12.060;2023-05-07T13:56:59;18.10;69.40
19110;DHT22;9687;50.836;12.060;2023-05-07T13:59:44;18.00;69.20
19110;DHT22;9687;50.836;12.060;2023-05-07T14:02:27;18.00;69.40
19110;DHT22;9687;50.836;12.060;2023-05-07T14:05:07;18.00;69.10
19110;DHT22;9687;50.836;12.060;2023-05-07T14:07:38;17.90;69.10
19110;DHT22;9687;50.836;12.060;2023-05-07T14:10:20;17.80;69.40
19110;DHT22;9687;50.836;12.060;2023-05-07T14:12:54;17.80;69.60
19110;DHT22;9687;50.836;12.060;2023-05-07T14:15:44;17.80;69.70
19110;DHT22;9687;50.836;12.060;2023-05-07T14:18:18;17.90;69.90
19110;DHT22;9687;50.836;12.060;2023-05-07T14:20:50;17.90;70.00
19110;DHT22;9687;50.836;12.060;2023-05-07T14:23:29;17.80;70.60
19110;DHT22;9687;50.836;12.060;2023-05-07T14:26:08;17.90;69.90
19110;DHT22;9687;50.836;12.060;2023-05-07T14:28:41;17.80;69.90
19110;DHT22;9687;50.836;12.060;2023-05-07T14:31:25;17.90;69.70
19110;DHT22;9687;50.836;12.060;2023-05-07T14:33:56;17.90;70.00
19110;DHT22;9687;50.836;12.060;2023-05-07T14:36:27;17.90;70.10
19110;DHT22;9687;50.836;12.060;2023-05-07T14:39:00;17.80;70.10
19110;DHT22;9687;50.836;12.060;2023-05-07T14:41:36;17.80;70.00
19110;DHT22;9687;50.836;12.060;2023-05-07T14:44:10;17.80;70.10
19110;DHT22;9687;50.836;12.060;2023-05-07T14:46:59;17.80;70.20
19110;DHT22;9687;50.836;12.060;2023-05-07T14:49:43;17.80;70.10
19110;DHT22;9687;50.836;12.060;2023-05-07T14:52:21;17.80;70.30
19110;DHT22;9687;50.836;12.060;2023-05-07T14:54:57;17.80;70.10
19110;DHT22;9687;50.836;12.060;2023-05-07T14:57:33;17.80;70.10
19110;DHT22;9687;50.836;12.060;2023-05-07T15:00:18;17.80;70.00
19110;DHT22;9687;50.836;12.060;2023-05-07T15:03:03;17.80;69.70
19110;DHT22;9687;50.836;12.060;2023-05-07T15:05:47;17.80;69.60
19110;DHT22;9687;50.836;12.060;2023-05-07T15:08:36;17.70;69.60
19110;DHT22;9687;50.836;12.060;2023-05-07T15:11:20;17.70;69.90
19110;DHT22;9687;50.836;12.060;2023-05-07T15:13:53;17.70;70.10
19110;DHT22;9687;50.836;12.060;2023-05-07T15:16:31;17.70;70.20
19110;DHT22;9687;50.836;12.060;2023-05-07T15:19:15;17.60;69.90
19110;DHT22;9687;50.836;12.060;2023-05-07T15:21:56;17.60;70.00
19110;DHT22;9687;50.836;12.060;2023-05-07T17:24:30;17.30;71.00
19110;DHT22;9687;50.836;12.060;2023-05-07T17:26:57;17.20;71.00
19110;DHT22;9687;50.836;12.060;2023-05-07T17:29:24;17.20;71.10
19110;DHT22;9687;50.836;12.060;2023-05-07T17:31:52;17.20;71.00
19110;DHT22;9687;50.836;12.060;2023-05-07T17:34:19;17.20;71.10
19110;DHT22;9687;50.836;12.060;2023-05-07T17:36:46;17.20;71.10
19110;DHT22;9687;50.836;12.060;2023-05-07T17:39:14;17.20;71.20
19110;DHT22;9687;50.836;12.060;2023-05-07T17:41:43;17.20;71.20
19110;DHT22;9687;50.836;12.060;2023-05-07T17:44:10;17.20;71.20
19110;DHT22;9687;50.836;12.060;2023-05-07T17:46:38;17.20;71.20
19110;DHT22;9687;50.836;12.060;2023-05-07T17:49:05;17.10;71.20
19110;DHT22;9687;50.836;12.060;2023-05-07T17:51:32;17.10;71.30
19110;DHT22;9687;50.836;12.060;2023-05-07T17:53:59;17.10;71.40
19110;DHT22;9687;50.836;12.060;2023-05-07T17:56:27;17.10;71.40
19110;DHT22;9687;50.836;12.060;2023-05-07T17:58:56;17.00;71.40
19110;DHT22;9687;50.836;12.060;2023-05-07T18:01:24;17.00;71.40
19110;DHT22;9687;50.836;12.060;2023-05-07T18:03:51;17.00;71.50
19110;DHT22;9687;50.836;12.060;2023-05-07T18:06:19;17.00;71.40
19110;DHT22;9687;50.836;12.060;2023-05-07T18:08:48;17.00;71.50
19110;DHT22;9687;50.836;12.060;2023-05-07T18:11:17;16.90;71.40
19110;DHT22;9687;50.836;12.060;2023-05-07T18:13:46;16.90;71.40
19110;DHT22;9687;50.836;12.060;2023-05-07T18:16:18;16.90;71.40
19110;DHT22;9687;50.836;12.060;2023-05-07T18:18:46;16.90;71.40
19110;DHT22;9687;50.836;12.060;2023-05-07T18:21:14;16.80;71.30
19110;DHT22;9687;50.836;12.060;2023-05-07T19:52:23;15.90;72.30
19110;DHT22;9687;50.836;12.060;2023-05-07T21:26:15;15.00;72.90
19110;DHT22;9687;50.836;12.060;2023-05-07T21:28:43;15.00;73.00
19110;DHT22;9687;50.836;12.060;2023-05-07T21:31:10;15.00;73.10
19110;DHT22;9687;50.836;12.060;2023-05-07T21:33:37;15.00;73.10
19110;DHT22;9687;50.836;12.060;2023-05-07T21:36:05;15.00;73.10
19110;DHT22;9687;50.836;12.060;2023-05-07T21:38:32;15.00;73.10
19110;DHT22;9687;50.836;12.060;2023-05-07T21:40:59;14.90;73.00
19110;DHT22;9687;50.836;12.060;2023-05-07T21:43:29;14.90;73.00
19110;DHT22;9687;50.836;12.060;2023-05-07T21:45:56;14.90;73.10
19110;DHT22;9687;50.836;12.060;2023-05-07T21:48:25;14.90;73.10
19110;DHT22;9687;50.836;12.060;2023-05-07T21:50:58;14.80;73.80
19110;DHT22;9687;50.836;12.060;2023-05-07T21:53:25;14.80;73.00
19110;DHT22;9687;50.836;12.060;2023-05-07T21:55:52;14.80;73.10
19110;DHT22;9687;50.836;12.060;2023-05-07T21:58:20;14.80;73.20
19110;DHT22;9687;50.836;12.060;2023-05-07T22:00:49;14.70;73.20
19110;DHT22;9687;50.836;12.060;2023-05-07T22:03:16;14.70;73.20
19110;DHT22;9687;50.836;12.060;2023-05-07T22:05:44;14.70;74.00
19110;DHT22;9687;50.836;12.060;2023-05-07T22:08:13;14.70;73.30
19110;DHT22;9687;50.836;12.060;2023-05-07T22:10:42;14.70;73.30
19110;DHT22;9687;50.836;12.060;2023-05-07T22:13:10;14.70;73.30
19110;DHT22;9687;50.836;12.060;2023-05-07T22:15:39;14.60;73.30
19110;DHT22;9687;50.836;12.060;2023-05-07T22:18:08;14.60;73.40
19110;DHT22;9687;50.836;12.060;2023-05-07T22:20:37;14.60;73.40
19110;DHT22;9687;50.836;12.060;2023-05-07T22:23:05;14.60;73.40
19110;DHT22;9687;50.836;12.060;2023-05-07T22:25:34;14.60;73.40
19110;DHT22;9687;50.836;12.060;2023-05-07T22:28:01;14.60;73.50
19110;DHT22;9687;50.836;12.060;2023-05-07T22:30:29;14.50;73.50
19110;DHT22;9687;50.836;12.060;2023-05-07T22:32:58;14.50;73.50
19110;DHT22;9687;50.836;12.060;2023-05-07T22:35:28;14.50;73.60
19110;DHT22;9687;50.836;12.060;2023-05-07T22:37:56;14.50;73.60
19110;DHT22;9687;50.836;12.060;2023-05-07T22:40:25;14.50;73.70
19110;DHT22;9687;50.836;12.060;2023-05-07T22:42:53;14.40;73.60
19110;DHT22;9687;50.836;12.060;2023-05-07T22:45:22;14.40;73.60
19110;DHT22;9687;50.836;12.060;2023-05-07T22:47:50;14.40;73.70
19110;DHT22;9687;50.836;12.060;2023-05-07T22:50:18;14.40;73.80
19110;DHT22;9687;50.836;12.060;2023-05-07T22:52:48;14.40;73.80
19110;DHT22;9687;50.836;12.060;2023-05-07T22:55:16;14.40;73.80
19110;DHT22;9687;50.836;12.060;2023-05-07T22:57:44;14.40;73.90
19110;DHT22;9687;50.836;12.060;2023-05-07T23:00:13;14.30;73.70
19110;DHT22;9687;50.836;12.060;2023-05-07T23:02:42;14.30;73.70
19110;DHT22;9687;50.836;12.060;2023-05-07T23:05:11;14.40;73.90
19110;DHT22;9687;50.836;12.060;2023-05-07T23:07:40;14.30;73.80
19110;DHT22;9687;50.836;12.060;2023-05-07T23:10:11;14.30;73.90
19110;DHT22;9687;50.836;12.060;2023-05-07T23:12:38;14.30;74.00
19110;DHT22;9687;50.836;12.060;2023-05-07T23:15:07;14.30;74.00
19110;DHT22;9687;50.836;12.060;2023-05-07T23:17:35;14.20;74.70
19110;DHT22;9687;50.836;12.060;2023-05-07T23:20:04;14.20;74.00
19110;DHT22;9687;50.836;12.060;2023-05-07T23:22:34;14.20;74.20
19110;DHT22;9687;50.836;12.060;2023-05-07T23:25:03;14.20;74.10
19110;DHT22;9687;50.836;12.060;2023-05-07T23:58:10;13.90;74.20
